Time;durP1;ratioP1;P1;durP2;ratioP2;P2;SDS_P1;SDS_P2;PMS_P1;PMS_P2;Temp;Humidity;BMP_temperature;BMP_pressure;BME280_temperature;BME280_humidity;BME280_pressure;Samples;Min_cycle;Max_cycle;Signal;HPM_P1;HPM_P2
2024/01/22 00:01:16;;;;;;;;;;;;;;;-7.84;100.00;99120.55;110404;1241;58941;-56
2024/01/22 00:03:46;;;;;;;;;;;;;;;-7.87;100.00;99117.75;110379;1242;69735;-56
2024/01/22 00:06:17;;;;;;;;;;;;;;;-7.91;100.00;99122.05;110431;1242;68610;-53
2024/01/22 00:08:48;;;;;;;;;;;;;;;-7.94;100.00;99124.66;110392;1242;69106;-55
2024/01/22 00:11:20;;;;;;;;;;;;;;;-7.97;100.00;99125.94;110397;1242;58936;-56
2024/01/22 00:13:50;;;;;;;;;;;;;;;-8.00;100.00;99125.36;110401;1241;59333;-55
2024/01/22 00:16:20;;;;;;;;;;;;;;;-8.01;100.00;99131.76;110442;1241;70584;-52
2024/01/22 00:18:50;;;;;;;;;;;;;;;-8.02;100.00;99129.19;110428;1242;67632;-57
2024/01/22 00:21:23;;;;;;;;;;;;;;;-8.03;100.00;99129.52;110417;1241;68531;-57
2024/01/22 00:23:53;;;;;;;;;;;;;;;-8.05;100.00;99128.59;110381;1239;58873;-56
2024/01/22 00:26:24;;;;;;;;;;;;;;;-8.05;100.00;99129.95;110389;1242;58935;-56
2024/01/22 00:28:54;;;;;;;;;;;;;;;-8.02;99.87;99131.05;110351;1242;70862;-57
2024/01/22 00:31:25;;;;;;;;;;;;;;;-8.00;97.71;99131.30;110423;1243;69277;-54
2024/01/22 00:33:55;;;;;;;;;;;;;;;-7.98;94.84;99129.48;110434;1238;69250;-55
2024/01/22 00:36:27;;;;;;;;;;;;;;;-7.97;94.18;99122.39;110458;1242;58931;-55
2024/01/22 00:38:57;;;;;;;;;;;;;;;-7.96;96.47;99118.86;110308;1242;58979;-56
2024/01/22 00:41:29;;;;;;;;;;;;;;;-7.94;99.18;99115.73;110366;1249;70805;-56
2024/01/22 00:44:01;;;;;;;;;;;;;;;-7.91;99.97;99114.08;110421;1241;69340;-57
2024/01/22 00:46:32;;;;;;;;;;;;;;;-7.89;100.00;99113.98;110377;1240;68917;-55
2024/01/22 00:49:05;;;;;;;;;;;;;;;-7.88;100.00;99113.51;110431;1243;59273;-55
2024/01/22 00:51:37;;;;;;;;;;;;;;;-7.88;100.00;99112.66;110395;1242;58902;-56
2024/01/22 00:54:08;;;;;;;;;;;;;;;-7.88;100.00;99114.20;110427;1242;69840;-57
2024/01/22 00:56:39;;;;;;;;;;;;;;;-7.87;100.00;99111.50;110366;1242;69677;-57
2024/01/22 00:59:10;;;;;;;;;;;;;;;-7.88;100.00;99111.48;110421;1238;69065;-58
2024/01/22 01:01:43;;;;;;;;;;;;;;;-7.90;100.00;99110.76;110459;1240;58948;-56
2024/01/22 01:04:13;;;;;;;;;;;;;;;-7.88;100.00;99112.99;110453;1243;58906;-57
2024/01/22 01:06:44;;;;;;;;;;;;;;;-7.87;100.00;99112.00;110421;1242;70896;-57
2024/01/22 01:09:22;;;;;;;;;;;;;;;-7.87;100.00;99110.83;110411;1242;69529;-57
2024/01/22 01:11:53;;;;;;;;;;;;;;;-7.87;100.00;99112.17;110442;1243;69307;-57
2024/01/22 01:14:26;;;;;;;;;;;;;;;-7.89;100.00;99111.61;110426;1242;59343;-57
2024/01/22 01:16:58;;;;;;;;;;;;;;;-7.96;100.00;99115.82;110489;1239;58947;-58
2024/01/22 01:19:29;;;;;;;;;;;;;;;-8.03;100.00;99115.63;110506;1242;70473;-57
2024/01/22 01:22:03;;;;;;;;;;;;;;;-8.09;100.00;99111.39;110461;1242;68534;-57
2024/01/22 01:24:35;;;;;;;;;;;;;;;-8.16;100.00;99108.83;110457;1242;69599;-56
2024/01/22 01:27:06;;;;;;;;;;;;;;;-8.20;100.00;99110.40;110512;1241;58868;-55
2024/01/22 01:29:40;;;;;;;;;;;;;;;-8.23;100.00;99107.95;110514;1240;58925;-55
2024/01/22 01:32:11;;;;;;;;;;;;;;;-8.26;100.00;99107.20;110506;1241;69559;-57
2024/01/22 01:34:43;;;;;;;;;;;;;;;-8.27;100.00;99102.61;110518;1238;67760;-55
2024/01/22 01:37:13;;;;;;;;;;;;;;;-8.28;100.00;99097.52;110302;1242;69332;-57
2024/01/22 01:39:44;;;;;;;;;;;;;;;-8.26;100.00;99100.26;110197;1241;58899;-55
2024/01/22 01:42:15;;;;;;;;;;;;;;;-8.20;100.00;99100.09;110306;1242;58946;-57
2024/01/22 01:44:51;;;;;;;;;;;;;;;-8.17;100.00;99099.83;110342;1241;69737;-56
2024/01/22 01:47:23;;;;;;;;;;;;;;;-8.16;100.00;99101.90;110363;1243;69320;-56
2024/01/22 01:49:55;;;;;;;;;;;;;;;-8.17;100.00;99102.55;110282;1242;68675;-53
2024/01/22 01:52:26;;;;;;;;;;;;;;;-8.16;100.00;99095.46;110344;1245;58987;-54
2024/01/22 01:54:58;;;;;;;;;;;;;;;-8.15;100.00;99100.41;110450;1242;58856;-52
2024/01/22 01:57:32;;;;;;;;;;;;;;;-8.15;100.00;99097.52;110472;1240;69711;-54
2024/01/22 02:00:09;;;;;;;;;;;;;;;-8.13;100.00;99096.89;110482;1242;68751;-55
2024/01/22 02:02:41;;;;;;;;;;;;;;;-8.07;100.00;99093.02;110259;1242;68440;-54
2024/01/22 02:05:16;;;;;;;;;;;;;;;-8.05;100.00;99099.33;110290;1242;58930;-55
2024/01/22 02:07:48;;;;;;;;;;;;;;;-8.02;100.00;99101.44;110232;1241;58913;-53
2024/01/22 02:10:20;;;;;;;;;;;;;;;-8.03;100.00;99101.08;110271;1244;70565;-53
2024/01/22 02:12:52;;;;;;;;;;;;;;;-7.98;100.00;99100.88;110270;1241;69216;-56
2024/01/22 02:15:24;;;;;;;;;;;;;;;-7.93;100.00;99101.34;110178;1249;69369;-57
2024/01/22 02:18:04;;;;;;;;;;;;;;;-7.90;100.00;99102.78;110259;1243;58872;-56
2024/01/22 02:20:40;;;;;;;;;;;;;;;-7.91;100.00;99095.80;110327;1243;58886;-56
2024/01/22 02:23:09;;;;;;;;;;;;;;;-7.91;100.00;99094.80;110281;1241;70679;-55
2024/01/22 02:25:41;;;;;;;;;;;;;;;-7.90;100.00;99094.50;110330;1242;68401;-56
2024/01/22 02:28:13;;;;;;;;;;;;;;;-7.89;100.00;99095.02;110366;1241;68695;-54
2024/01/22 02:30:45;;;;;;;;;;;;;;;-7.88;100.00;99090.48;110386;1242;58882;-56
2024/01/22 02:33:16;;;;;;;;;;;;;;;-7.91;100.00;99089.23;110406;1242;58857;-57
2024/01/22 02:35:46;;;;;;;;;;;;;;;-7.94;100.00;99097.26;110379;1239;70575;-56
2024/01/22 02:38:17;;;;;;;;;;;;;;;-7.99;100.00;99101.72;110365;1238;69548;-55
2024/01/22 02:40:48;;;;;;;;;;;;;;;-8.02;100.00;99100.95;110303;1238;68406;-57
2024/01/22 02:43:18;;;;;;;;;;;;;;;-8.06;100.00;99101.33;110443;1242;58931;-56
2024/01/22 02:45:50;;;;;;;;;;;;;;;-8.11;100.00;99097.64;110499;1246;58935;-55
2024/01/22 02:48:21;;;;;;;;;;;;;;;-8.15;100.00;99094.45;110323;1242;69771;-55
2024/01/22 02:50:53;;;;;;;;;;;;;;;-8.18;100.00;99095.73;110420;1238;68397;-56
2024/01/22 02:53:27;;;;;;;;;;;;;;;-8.23;100.00;99092.75;110334;1241;69235;-56
2024/01/22 02:56:00;;;;;;;;;;;;;;;-8.30;100.00;99088.64;110384;1242;58898;-55
2024/01/22 02:58:35;;;;;;;;;;;;;;;-8.37;100.00;99088.95;110353;1241;58874;-54
2024/01/22 03:01:06;;;;;;;;;;;;;;;-8.45;100.00;99083.67;110396;1238;70590;-56
2024/01/22 03:03:42;;;;;;;;;;;;;;;-8.52;100.00;99078.40;110410;1242;69256;-56
2024/01/22 03:06:13;;;;;;;;;;;;;;;-8.59;100.00;99079.70;110312;1242;68376;-54
2024/01/22 03:08:45;;;;;;;;;;;;;;;-8.64;100.00;99080.90;110359;1238;58873;-53
2024/01/22 03:11:15;;;;;;;;;;;;;;;-8.67;100.00;99083.85;110453;1241;58870;-57
2024/01/22 03:13:48;;;;;;;;;;;;;;;-8.69;100.00;99085.64;110546;1242;70605;-53
2024/01/22 03:16:19;;;;;;;;;;;;;;;-8.72;100.00;99089.64;110389;1248;69245;-55
2024/01/22 03:18:50;;;;;;;;;;;;;;;-8.76;100.00;99094.60;110473;1241;69389;-53
2024/01/22 03:21:21;;;;;;;;;;;;;;;-8.78;100.00;99091.48;110422;1242;58883;-54
2024/01/22 03:23:52;;;;;;;;;;;;;;;-8.81;100.00;99088.69;110370;1242;58811;-55
2024/01/22 03:26:23;;;;;;;;;;;;;;;-8.84;100.00;99090.11;110413;1241;70527;-54
2024/01/22 03:28:54;;;;;;;;;;;;;;;-8.87;100.00;99084.80;110393;1242;69250;-53
2024/01/22 03:31:26;;;;;;;;;;;;;;;-8.90;100.00;99086.38;110377;1243;69175;-57
2024/01/22 03:33:58;;;;;;;;;;;;;;;-8.94;100.00;99082.21;110509;1242;58903;-57
2024/01/22 03:36:29;;;;;;;;;;;;;;;-8.97;100.00;99086.34;110498;1238;58940;-57
2024/01/22 03:39:06;;;;;;;;;;;;;;;-9.02;100.00;99095.33;110505;1241;69727;-55
2024/01/22 03:41:39;;;;;;;;;;;;;;;-9.05;100.00;99099.75;110330;1239;69269;-57
2024/01/22 03:44:11;;;;;;;;;;;;;;;-9.06;100.00;99103.77;110364;1241;68643;-56
2024/01/22 03:46:42;;;;;;;;;;;;;;;-9.07;100.00;99107.46;110498;1241;58935;-58
2024/01/22 03:49:13;;;;;;;;;;;;;;;-9.07;100.00;99105.10;110458;1241;58928;-56
2024/01/22 03:51:45;;;;;;;;;;;;;;;-9.06;100.00;99101.77;110443;1243;70554;-55
2024/01/22 03:54:15;;;;;;;;;;;;;;;-9.03;100.00;99102.88;110395;1242;69206;-59
2024/01/22 03:56:47;;;;;;;;;;;;;;;-9.00;100.00;99107.86;110455;1241;68413;-56
2024/01/22 03:59:20;;;;;;;;;;;;;;;-9.01;100.00;99107.48;110505;1242;58867;-58
2024/01/22 04:01:54;;;;;;;;;;;;;;;-9.05;100.00;99111.92;110295;1241;58869;-54
2024/01/22 04:04:24;;;;;;;;;;;;;;;-9.10;100.00;99106.88;110370;1241;70491;-56
2024/01/22 04:06:55;;;;;;;;;;;;;;;-9.13;100.00;99106.95;110393;1243;69079;-56
2024/01/22 04:09:25;;;;;;;;;;;;;;;-9.17;100.00;99106.30;110388;1248;68724;-54
2024/01/22 04:11:55;;;;;;;;;;;;;;;-9.19;100.00;99103.70;110295;1242;58921;-56
2024/01/22 04:14:25;;;;;;;;;;;;;;;-9.21;100.00;99102.95;110366;1242;58885;-54
2024/01/22 04:16:56;;;;;;;;;;;;;;;-9.22;100.00;99102.76;110355;1240;70521;-56
2024/01/22 04:19:26;;;;;;;;;;;;;;;-9.24;100.00;99102.54;110442;1238;68572;-57
2024/01/22 04:21:59;;;;;;;;;;;;;;;-9.27;100.00;99103.48;110409;1241;68570;-57
2024/01/22 04:24:29;;;;;;;;;;;;;;;-9.27;100.00;99100.09;110399;1239;58902;-56
2024/01/22 04:27:00;;;;;;;;;;;;;;;-9.23;100.00;99101.72;110495;1241;59280;-57
2024/01/22 04:29:33;;;;;;;;;;;;;;;-9.20;100.00;99106.70;110418;1238;69668;-56
2024/01/22 04:32:02;;;;;;;;;;;;;;;-9.19;100.00;99111.31;110399;1241;69320;-54
2024/01/22 04:34:32;;;;;;;;;;;;;;;-9.18;100.00;99113.22;110417;1240;69319;-56
2024/01/22 04:37:02;;;;;;;;;;;;;;;-9.15;100.00;99113.65;110538;1238;58898;-54
2024/01/22 04:39:34;;;;;;;;;;;;;;;-9.13;100.00;99113.02;110483;1242;58831;-56
2024/01/22 04:42:03;;;;;;;;;;;;;;;-9.11;100.00;99113.27;110384;1241;70603;-54
2024/01/22 04:44:34;;;;;;;;;;;;;;;-9.07;100.00;99106.79;110365;1242;69205;-56
2024/01/22 04:47:05;;;;;;;;;;;;;;;-9.05;100.00;99102.16;110362;1240;69255;-55
2024/01/22 04:49:37;;;;;;;;;;;;;;;-9.02;100.00;99104.41;110323;1241;58855;-54
2024/01/22 04:52:07;;;;;;;;;;;;;;;-9.04;100.00;99105.38;110357;1238;58868;-55
2024/01/22 04:54:37;;;;;;;;;;;;;;;-9.07;100.00;99103.23;110356;1241;70653;-54
2024/01/22 04:57:06;;;;;;;;;;;;;;;-9.10;100.00;99100.98;110360;1241;69291;-56
2024/01/22 04:59:36;;;;;;;;;;;;;;;-9.14;100.00;99105.24;110361;1241;69409;-57
2024/01/22 05:02:06;;;;;;;;;;;;;;;-9.18;100.00;99105.44;110370;1241;58880;-53
2024/01/22 05:04:35;;;;;;;;;;;;;;;-9.19;100.00;99100.34;110392;1241;58824;-56
2024/01/22 05:07:05;;;;;;;;;;;;;;;-9.21;100.00;99102.29;110386;1240;70463;-54
2024/01/22 05:09:34;;;;;;;;;;;;;;;-9.22;100.00;99100.74;110459;1241;68587;-55
2024/01/22 05:12:04;;;;;;;;;;;;;;;-9.23;100.00;99103.75;110348;1241;68446;-58
2024/01/22 05:14:38;;;;;;;;;;;;;;;-9.20;100.00;99102.30;110390;1241;58921;-54
2024/01/22 05:17:08;;;;;;;;;;;;;;;-9.21;100.00;99099.75;110377;1242;58947;-57
2024/01/22 05:19:38;;;;;;;;;;;;;;;-9.23;100.00;99096.48;110365;1241;69636;-55
2024/01/22 05:22:08;;;;;;;;;;;;;;;-9.28;100.00;99090.91;110333;1241;69432;-54
2024/01/22 05:24:38;;;;;;;;;;;;;;;-9.33;100.00;99093.30;110477;1241;69338;-57
2024/01/22 05:27:11;;;;;;;;;;;;;;;-9.39;100.00;99093.77;110385;1238;58995;-56
2024/01/22 05:29:41;;;;;;;;;;;;;;;-9.46;100.00;99094.55;110297;1241;58904;-52
2024/01/22 05:32:10;;;;;;;;;;;;;;;-9.55;100.00;99096.79;110398;1242;71690;-52
2024/01/22 05:34:40;;;;;;;;;;;;;;;-9.60;100.00;99098.32;110453;1241;68506;-53
2024/01/22 05:37:09;;;;;;;;;;;;;;;-9.61;100.00;99104.02;110439;1240;69332;-54
2024/01/22 05:39:39;;;;;;;;;;;;;;;-9.62;100.00;99104.96;110408;1238;59027;-56
2024/01/22 05:42:08;;;;;;;;;;;;;;;-9.63;100.00;99103.60;110469;1238;58928;-56
2024/01/22 05:44:38;;;;;;;;;;;;;;;-9.63;100.00;99100.89;110526;1238;69701;-57
2024/01/22 05:47:08;;;;;;;;;;;;;;;-9.63;100.00;99103.45;110405;1242;68742;-56
2024/01/22 05:49:38;;;;;;;;;;;;;;;-9.61;100.00;99103.83;110506;1240;68717;-55
2024/01/22 05:52:08;;;;;;;;;;;;;;;-9.59;100.00;99102.55;110547;1241;58939;-54
2024/01/22 05:54:37;;;;;;;;;;;;;;;-9.55;100.00;99100.48;110471;1241;58864;-55
2024/01/22 05:57:09;;;;;;;;;;;;;;;-9.52;100.00;99094.20;110666;1238;70635;-55
2024/01/22 05:59:39;;;;;;;;;;;;;;;-9.50;100.00;99093.09;110524;1241;68824;-55
2024/01/22 06:02:09;;;;;;;;;;;;;;;-9.47;100.00;99098.73;110484;1240;69321;-51
2024/01/22 06:04:38;;;;;;;;;;;;;;;-9.46;100.00;99107.05;110474;1238;58937;-55
2024/01/22 06:07:08;;;;;;;;;;;;;;;-9.43;100.00;99109.16;110587;1240;58909;-54
2024/01/22 06:09:38;;;;;;;;;;;;;;;-9.39;100.00;99111.67;110513;1248;71168;-56
2024/01/22 06:12:08;;;;;;;;;;;;;;;-9.35;100.00;99112.14;110297;1241;68517;-55
2024/01/22 06:14:38;;;;;;;;;;;;;;;-9.32;100.00;99103.98;110294;1241;68318;-55
2024/01/22 06:17:08;;;;;;;;;;;;;;;-9.28;100.00;99098.02;110129;1242;58932;-55
2024/01/22 06:19:37;;;;;;;;;;;;;;;-9.22;100.00;99099.55;110225;1241;58832;-53
2024/01/22 06:22:07;;;;;;;;;;;;;;;-9.18;100.00;99100.52;110246;1241;70591;-54
2024/01/22 06:24:38;;;;;;;;;;;;;;;-9.17;100.00;99100.73;110238;1240;69468;-53
2024/01/22 06:27:07;;;;;;;;;;;;;;;-9.17;100.00;99099.21;110304;1239;68316;-55
2024/01/22 06:29:37;;;;;;;;;;;;;;;-9.15;100.00;99104.55;110300;1241;58871;-55
2024/01/22 06:32:07;;;;;;;;;;;;;;;-9.13;100.00;99107.44;110330;1238;58849;-55
2024/01/22 06:34:37;;;;;;;;;;;;;;;-9.11;100.00;99110.73;110357;1238;70973;-56
2024/01/22 06:37:07;;;;;;;;;;;;;;;-9.08;100.00;99102.20;110444;1241;69347;-54
2024/01/22 06:39:36;;;;;;;;;;;;;;;-9.04;100.00;99101.98;110356;1240;69278;-52
2024/01/22 06:42:07;;;;;;;;;;;;;;;-8.98;100.00;99105.23;110309;1241;58870;-55
2024/01/22 06:44:36;;;;;;;;;;;;;;;-8.92;100.00;99110.65;110360;1240;58803;-54
2024/01/22 06:47:06;;;;;;;;;;;;;;;-8.87;100.00;99112.84;110436;1240;70997;-55
2024/01/22 06:49:35;;;;;;;;;;;;;;;-8.80;100.00;99117.44;110392;1241;69109;-56
2024/01/22 06:52:05;;;;;;;;;;;;;;;-8.71;100.00;99117.23;110417;1241;69692;-57
2024/01/22 06:54:34;;;;;;;;;;;;;;;-8.61;100.00;99117.01;110466;1241;58924;-56
2024/01/22 06:57:03;;;;;;;;;;;;;;;-8.52;100.00;99119.66;110385;1241;58856;-56
2024/01/22 06:59:34;;;;;;;;;;;;;;;-8.42;100.00;99123.67;110406;1241;70685;-54
2024/01/22 07:02:04;;;;;;;;;;;;;;;-8.30;100.00;99129.41;110534;1241;69187;-56
2024/01/22 07:04:35;;;;;;;;;;;;;;;-8.14;100.00;99132.23;110246;1240;69193;-58
2024/01/22 07:07:04;;;;;;;;;;;;;;;-7.95;100.00;99132.77;110402;1241;58951;-58
2024/01/22 07:09:33;;;;;;;;;;;;;;;-7.70;100.00;99133.27;110473;1241;58862;-57
2024/01/22 07:12:03;;;;;;;;;;;;;;;-7.27;100.00;99131.52;110588;1238;71059;-59
2024/01/22 07:14:32;;;;;;;;;;;;;;;-6.70;100.00;99124.45;110418;1238;68900;-57
2024/01/22 07:17:03;;;;;;;;;;;;;;;-6.03;100.00;99121.98;110386;1241;69584;-56
2024/01/22 07:19:33;;;;;;;;;;;;;;;-5.36;100.00;99123.58;110355;1238;58863;-57
2024/01/22 07:22:03;;;;;;;;;;;;;;;-4.73;100.00;99119.01;110402;1241;58897;-57
2024/01/22 07:24:32;;;;;;;;;;;;;;;-4.32;100.00;99117.56;110415;1238;70736;-55
2024/01/22 07:27:01;;;;;;;;;;;;;;;-3.75;100.00;99116.07;110337;1242;69787;-57
2024/01/22 07:29:31;;;;;;;;;;;;;;;-3.34;98.02;99116.33;110346;1248;69758;-56
2024/01/22 07:32:00;;;;;;;;;;;;;;;-3.18;95.03;99115.63;110368;1238;58880;-58
2024/01/22 07:34:29;;;;;;;;;;;;;;;-3.04;90.65;99116.44;110446;1241;58859;-58
2024/01/22 07:36:59;;;;;;;;;;;;;;;-2.75;88.78;99114.45;110534;1241;69836;-58
2024/01/22 07:39:27;;;;;;;;;;;;;;;-2.55;88.27;99116.64;110454;1240;69658;-58
2024/01/22 07:41:57;;;;;;;;;;;;;;;-1.80;89.93;99118.41;110418;1240;68999;-58
2024/01/22 07:44:26;;;;;;;;;;;;;;;-1.26;87.79;99115.98;110423;1242;58928;-57
2024/01/22 07:46:55;;;;;;;;;;;;;;;-0.89;80.93;99119.45;110509;1241;58863;-59
2024/01/22 07:49:25;;;;;;;;;;;;;;;-0.77;78.89;99123.55;110443;1241;69558;-59
2024/01/22 07:51:54;;;;;;;;;;;;;;;-0.69;77.54;99119.45;110372;1242;69645;-59
2024/01/22 07:54:24;;;;;;;;;;;;;;;-0.84;78.07;99116.02;110392;1240;69071;-58
2024/01/22 07:56:53;;;;;;;;;;;;;;;-0.84;78.78;99115.52;110553;1238;58941;-59
2024/01/22 07:59:23;;;;;;;;;;;;;;;-0.57;77.60;99113.43;110390;1241;58885;-59
2024/01/22 08:01:52;;;;;;;;;;;;;;;-0.41;77.82;99111.02;110317;1241;71238;-60
2024/01/22 08:04:21;;;;;;;;;;;;;;;0.50;76.81;99108.47;110380;1240;69203;-59
2024/01/22 08:06:50;;;;;;;;;;;;;;;0.87;75.23;99107.02;110333;1238;69915;-58
2024/01/22 08:09:20;;;;;;;;;;;;;;;1.40;70.80;99106.61;110345;1240;58952;-59
2024/01/22 08:11:49;;;;;;;;;;;;;;;1.40;67.11;99107.80;110365;1242;58888;-58
2024/01/22 08:14:18;;;;;;;;;;;;;;;1.52;66.69;99114.91;110381;1243;70774;-59
2024/01/22 08:16:49;;;;;;;;;;;;;;;1.41;66.98;99118.28;110387;1238;69304;-60
2024/01/22 08:19:19;;;;;;;;;;;;;;;1.81;65.91;99118.26;110343;1241;69201;-59
2024/01/22 08:21:49;;;;;;;;;;;;;;;1.94;64.54;99118.63;110342;1242;58918;-59
2024/01/22 08:24:18;;;;;;;;;;;;;;;2.09;64.56;99119.14;110399;1238;58912;-60
2024/01/22 08:26:48;;;;;;;;;;;;;;;2.44;63.66;99114.23;110405;1241;70617;-59
2024/01/22 08:29:17;;;;;;;;;;;;;;;2.90;64.70;99110.80;110400;1240;69037;-61
2024/01/22 08:31:47;;;;;;;;;;;;;;;3.74;62.84;99118.23;110330;1238;68693;-61
2024/01/22 08:34:17;;;;;;;;;;;;;;;3.73;60.05;99123.27;110350;1241;58918;-61
2024/01/22 08:36:47;;;;;;;;;;;;;;;3.27;59.22;99125.78;110372;1240;58860;-61
2024/01/22 08:39:16;;;;;;;;;;;;;;;3.62;58.96;99130.88;110391;1238;70666;-61
2024/01/22 08:41:46;;;;;;;;;;;;;;;3.70;59.54;99127.98;110359;1239;70172;-59
2024/01/22 08:44:15;;;;;;;;;;;;;;;4.37;58.58;99119.63;110367;1241;68429;-60
2024/01/22 08:46:44;;;;;;;;;;;;;;;4.83;56.23;99102.20;110389;1238;58939;-59
2024/01/22 08:49:14;;;;;;;;;;;;;;;5.41;56.98;99096.15;110354;1240;58865;-59
2024/01/22 08:51:43;;;;;;;;;;;;;;;6.32;57.33;99093.38;110231;1242;70389;-59
2024/01/22 08:54:13;;;;;;;;;;;;;;;6.76;52.14;99091.05;110357;1240;68150;-59
2024/01/22 08:56:43;;;;;;;;;;;;;;;6.61;51.67;99092.55;110344;1240;69881;-59
2024/01/22 08:59:12;;;;;;;;;;;;;;;7.07;50.70;99099.26;110346;1241;58904;-60
2024/01/22 09:01:41;;;;;;;;;;;;;;;7.25;49.99;99095.54;110406;1241;58936;-59
2024/01/22 09:04:10;;;;;;;;;;;;;;;7.23;50.32;99090.95;110354;1241;69895;-59
2024/01/22 09:06:39;;;;;;;;;;;;;;;7.45;49.17;99084.11;110346;1240;68762;-59
2024/01/22 09:09:09;;;;;;;;;;;;;;;6.79;47.79;99079.67;110489;1240;70255;-60
2024/01/22 09:11:41;;;;;;;;;;;;;;;6.82;48.64;99080.60;110366;1238;58886;-59
2024/01/22 09:14:11;;;;;;;;;;;;;;;6.99;47.73;99075.76;110367;1240;58856;-59
2024/01/22 09:16:40;;;;;;;;;;;;;;;7.23;47.67;99076.84;110327;1240;71177;-59
2024/01/22 09:19:09;;;;;;;;;;;;;;;7.54;45.28;99069.75;110364;1238;69885;-59
2024/01/22 09:21:40;;;;;;;;;;;;;;;7.81;46.48;99062.77;110294;1238;69564;-59
2024/01/22 09:24:09;;;;;;;;;;;;;;;8.45;48.00;99054.54;110333;1238;58901;-59
2024/01/22 09:26:38;;;;;;;;;;;;;;;8.58;46.16;99052.28;110282;1241;58873;-59
2024/01/22 09:29:07;;;;;;;;;;;;;;;8.92;45.86;99042.62;110422;1238;69880;-58
2024/01/22 09:31:36;;;;;;;;;;;;;;;9.06;44.43;99033.36;110362;1240;69787;-59
2024/01/22 09:34:05;;;;;;;;;;;;;;;9.59;44.83;99025.22;110321;1241;69907;-59
2024/01/22 09:36:35;;;;;;;;;;;;;;;9.67;45.33;99008.85;110331;1240;58833;-59
2024/01/22 09:39:05;;;;;;;;;;;;;;;9.84;44.96;98997.13;110349;1241;59086;-58
2024/01/22 09:41:35;;;;;;;;;;;;;;;9.84;43.55;98991.58;110321;1238;71147;-61
2024/01/22 09:44:05;;;;;;;;;;;;;;;10.14;43.04;98984.79;110394;1241;69941;-60
2024/01/22 09:46:35;;;;;;;;;;;;;;;10.03;42.63;98983.39;110465;1240;69214;-61
2024/01/22 09:49:05;;;;;;;;;;;;;;;10.73;43.57;98987.98;110521;1241;58872;-59
2024/01/22 09:51:35;;;;;;;;;;;;;;;10.77;42.00;98991.29;110412;1248;58867;-59
2024/01/22 09:54:10;;;;;;;;;;;;;;;10.66;40.40;98983.97;110453;1241;71704;-59
2024/01/22 09:56:40;;;;;;;;;;;;;;;10.99;41.00;98983.57;110551;1241;69383;-59
2024/01/22 09:59:19;;;;;;;;;;;;;;;10.78;39.20;98976.03;110547;1238;68354;-59
2024/01/22 10:01:49;;;;;;;;;;;;;;;10.67;39.16;98974.66;110389;1241;58931;-59
2024/01/22 10:04:18;;;;;;;;;;;;;;;10.86;39.70;98965.73;110455;1241;58876;-61
2024/01/22 10:06:50;;;;;;;;;;;;;;;10.89;39.53;98967.64;110407;1240;70175;-60
2024/01/22 10:09:22;;;;;;;;;;;;;;;10.64;39.15;98964.01;110353;1238;68604;-60
2024/01/22 10:11:53;;;;;;;;;;;;;;;11.00;39.83;98964.33;110381;1238;69875;-60
2024/01/22 10:14:34;;;;;;;;;;;;;;;11.29;38.96;98958.31;110393;1238;58930;-60
2024/01/22 10:17:26;;;;;;;;;;;;;;;11.52;38.77;98955.22;110345;1240;58854;-60
2024/01/22 10:20:05;;;;;;;;;;;;;;;10.94;37.52;98954.31;110358;1241;70577;-60
2024/01/22 10:22:35;;;;;;;;;;;;;;;10.84;38.27;98952.05;110467;1238;69300;-60
2024/01/22 10:25:05;;;;;;;;;;;;;;;11.58;38.57;98948.95;110463;1241;69276;-62
2024/01/22 10:27:35;;;;;;;;;;;;;;;11.80;37.70;98946.55;110467;1241;58896;-60
2024/01/22 10:30:12;;;;;;;;;;;;;;;11.79;37.65;98943.62;110380;1238;58903;-62
2024/01/22 10:32:41;;;;;;;;;;;;;;;12.14;37.48;98942.83;110586;1241;69868;-62
2024/01/22 10:35:26;;;;;;;;;;;;;;;11.82;35.26;98948.92;110558;1238;68726;-61
2024/01/22 10:38:04;;;;;;;;;;;;;;;12.06;35.98;98944.48;110443;1241;69340;-59
2024/01/22 10:40:34;;;;;;;;;;;;;;;11.64;35.89;98937.30;110476;1242;58936;-59
2024/01/22 10:43:27;;;;;;;;;;;;;;;10.61;36.55;98936.96;110420;1238;58945;-59
2024/01/22 10:45:58;;;;;;;;;;;;;;;11.39;36.75;98933.15;110330;1241;70595;-59
2024/01/22 10:48:29;;;;;;;;;;;;;;;11.77;35.44;98930.69;110401;1241;69633;-60
2024/01/22 10:51:11;;;;;;;;;;;;;;;12.25;35.65;98926.84;110389;1240;69925;-59
2024/01/22 10:53:41;;;;;;;;;;;;;;;11.74;35.50;98923.07;110336;1238;58886;-59
2024/01/22 10:56:23;;;;;;;;;;;;;;;10.92;36.24;98919.20;110464;1240;58796;-59
2024/01/22 10:58:55;;;;;;;;;;;;;;;11.05;36.32;98913.33;110470;1238;69822;-59
2024/01/22 11:01:25;;;;;;;;;;;;;;;11.52;36.27;98906.84;110437;1240;68534;-59
2024/01/22 11:03:57;;;;;;;;;;;;;;;11.53;36.13;98905.38;110384;1240;69872;-60
2024/01/22 11:06:31;;;;;;;;;;;;;;;10.89;36.09;98908.73;110408;1239;58923;-59
2024/01/22 11:09:04;;;;;;;;;;;;;;;10.78;36.24;98906.98;110468;1242;58837;-59
2024/01/22 11:11:35;;;;;;;;;;;;;;;11.77;36.32;98895.40;110387;1238;70556;-59
2024/01/22 11:14:05;;;;;;;;;;;;;;;12.46;34.46;98895.11;109776;1240;774235;-59
2024/01/22 11:16:36;;;;;;;;;;;;;;;13.39;34.55;98889.79;110377;1241;69238;-59
2024/01/22 11:19:05;;;;;;;;;;;;;;;13.27;33.48;98885.02;110404;1240;58915;-60
2024/01/22 11:21:39;;;;;;;;;;;;;;;13.86;34.23;98879.70;110425;1241;58900;-61
2024/01/22 11:24:09;;;;;;;;;;;;;;;13.66;33.15;98873.41;110398;1240;70659;-59
2024/01/22 11:26:43;;;;;;;;;;;;;;;13.82;32.67;98868.75;110420;1241;68693;-58
2024/01/22 11:29:15;;;;;;;;;;;;;;;14.17;33.70;98865.26;110361;1241;69555;-60
2024/01/22 11:31:45;;;;;;;;;;;;;;;14.46;32.65;98861.17;110358;1238;58872;-60
2024/01/22 11:34:37;;;;;;;;;;;;;;;14.95;33.31;98851.75;110454;1241;58885;-60
2024/01/22 11:37:09;;;;;;;;;;;;;;;15.24;32.69;98847.64;110336;1239;71211;-60
2024/01/22 11:39:40;;;;;;;;;;;;;;;14.81;31.56;98839.68;110428;1241;69223;-60
2024/01/22 11:42:12;;;;;;;;;;;;;;;14.57;31.86;98835.86;110536;1241;69859;-60
2024/01/22 11:44:43;;;;;;;;;;;;;;;13.83;31.57;98830.28;110373;1241;59332;-60
2024/01/22 11:47:12;;;;;;;;;;;;;;;14.39;31.86;98829.15;110408;1240;58858;-60
2024/01/22 11:49:42;;;;;;;;;;;;;;;14.70;31.68;98826.71;110338;1241;70537;-60
2024/01/22 11:52:13;;;;;;;;;;;;;;;14.27;32.20;98825.02;110516;1241;69794;-60
2024/01/22 11:54:56;;;;;;;;;;;;;;;14.60;31.05;98817.96;110382;1240;69308;-60
2024/01/22 11:57:26;;;;;;;;;;;;;;;15.04;31.17;98812.84;110477;1238;58924;-60
2024/01/22 12:00:06;;;;;;;;;;;;;;;14.45;30.47;98812.59;110450;1240;58818;-60
2024/01/22 12:02:39;;;;;;;;;;;;;;;15.19;30.00;98802.37;110440;1238;71172;-60
2024/01/22 12:05:10;;;;;;;;;;;;;;;15.46;30.84;98799.59;110507;1241;69758;-60
2024/01/22 12:07:39;;;;;;;;;;;;;;;15.57;29.82;98802.52;110515;1241;69301;-60
2024/01/22 12:10:27;;;;;;;;;;;;;;;15.56;29.96;98800.95;110423;1240;58888;-61
2024/01/22 12:12:57;;;;;;;;;;;;;;;15.72;30.62;98789.41;110512;1239;58877;-61
2024/01/22 12:15:28;;;;;;;;;;;;;;;15.48;30.07;98782.05;110535;1238;68922;-61
2024/01/22 12:17:58;;;;;;;;;;;;;;;15.61;29.99;98777.80;110377;1241;69807;-59
2024/01/22 12:20:27;;;;;;;;;;;;;;;15.92;29.67;98772.35;110385;1241;69029;-59
2024/01/22 12:23:01;;;;;;;;;;;;;;;15.36;29.30;98773.93;110438;1240;58938;-60
2024/01/22 12:25:37;;;;;;;;;;;;;;;15.21;29.60;98772.34;110540;1241;58948;-59
2024/01/22 12:28:09;;;;;;;;;;;;;;;15.51;29.63;98767.98;110477;1239;71033;-59
2024/01/22 12:30:39;;;;;;;;;;;;;;;15.77;29.97;98769.92;110439;1241;69776;-60
2024/01/22 12:33:19;;;;;;;;;;;;;;;16.14;29.64;98764.79;110479;1240;69294;-59
2024/01/22 12:35:51;;;;;;;;;;;;;;;16.11;29.86;98761.67;110597;1245;58888;-58
2024/01/22 12:38:22;;;;;;;;;;;;;;;15.57;28.45;98760.45;110555;1240;58868;-61
2024/01/22 12:41:08;;;;;;;;;;;;;;;15.34;29.65;98759.31;110524;1240;70588;-61
2024/01/22 12:43:40;;;;;;;;;;;;;;;14.72;29.87;98757.31;110518;1241;68992;-60
2024/01/22 12:46:18;;;;;;;;;;;;;;;14.66;29.35;98761.08;110558;1241;69957;-60
2024/01/22 12:48:47;;;;;;;;;;;;;;;14.46;29.57;98758.88;110524;1239;58956;-61
2024/01/22 12:51:17;;;;;;;;;;;;;;;15.23;29.86;98755.90;110577;1240;58867;-59
2024/01/22 12:53:47;;;;;;;;;;;;;;;15.33;28.98;98752.86;110474;1238;70522;-58